createdAt,value
2022-10-05T00:02:05.497Z,94.86
2022-10-05T00:07:13.820Z,94.99
2022-10-05T00:12:18.081Z,94.78
2022-10-05T00:17:23.925Z,94.86
2022-10-05T00:22:31.951Z,94.67
2022-10-05T00:27:38.840Z,94.86
2022-10-05T00:32:43.117Z,94.64
2022-10-05T00:37:46.589Z,94.66
2022-10-05T00:42:57.190Z,94.59
2022-10-05T00:48:14.729Z,94.78
2022-10-05T00:53:31.555Z,94.86
2022-10-05T00:58:47.777Z,94.91
2022-10-05T01:04:02.057Z,95.03
2022-10-05T01:09:12.784Z,95.08
2022-10-05T01:14:20.767Z,95.06
2022-10-05T01:19:50.142Z,95.25
2022-10-05T01:25:07.219Z,95.20
2022-10-05T01:30:14.004Z,94.95
2022-10-05T01:35:30.646Z,94.93
2022-10-05T01:40:40.341Z,95.17
2022-10-05T01:45:57.347Z,95.33
2022-10-05T01:51:12.418Z,95.25
2022-10-05T01:56:23.627Z,95.19
2022-10-05T02:01:33.223Z,95.28
2022-10-05T02:06:41.472Z,95.19
2022-10-05T02:11:48.570Z,95.34
2022-10-05T02:16:56.146Z,95.53
2022-10-05T02:22:05.922Z,95.46
2022-10-05T02:27:12.081Z,95.47
2022-10-05T02:32:23.095Z,95.27
2022-10-05T02:37:36.284Z,95.26
2022-10-05T02:42:50.085Z,95.25
2022-10-05T02:48:02.448Z,95.27
2022-10-05T02:53:20.666Z,95.49
2022-10-05T02:58:26.926Z,95.46
2022-10-05T03:03:37.951Z,95.47
2022-10-05T03:08:47.873Z,95.55
2022-10-05T03:14:00.510Z,95.57
2022-10-05T03:19:17.812Z,95.43
2022-10-05T03:24:43.131Z,95.46
2022-10-05T03:29:53.211Z,95.61
2022-10-05T03:35:04.671Z,95.54
2022-10-05T03:40:16.647Z,95.58
2022-10-05T03:45:25.785Z,95.87
2022-10-05T03:50:45.448Z,95.96
2022-10-05T03:55:52.978Z,96.06
2022-10-05T04:01:02.903Z,96.09
2022-10-05T04:06:13.457Z,96.02
2022-10-05T04:11:21.270Z,96.27
2022-10-05T04:16:27.915Z,96.07
2022-10-05T04:21:36.129Z,96.07
2022-10-05T04:26:44.793Z,96.05
2022-10-05T04:32:00.432Z,96.11
2022-10-05T04:37:09.391Z,95.99
2022-10-05T04:42:19.351Z,96.01
2022-10-05T04:47:38.534Z,95.96
2022-10-05T04:52:56.219Z,96.04
2022-10-05T04:58:09.951Z,96.32
2022-10-05T05:03:33.057Z,96.13
2022-10-05T05:08:51.251Z,96.13
2022-10-05T05:14:16.140Z,96.31
2022-10-05T05:19:39.883Z,96.33
2022-10-05T05:24:56.494Z,96.21
2022-10-05T05:30:04.976Z,96.25
2022-10-05T05:35:29.223Z,96.45
2022-10-05T05:40:37.090Z,96.66
2022-10-05T05:45:43.220Z,96.71
2022-10-05T05:50:54.384Z,96.76
2022-10-05T05:56:06.317Z,96.84
2022-10-05T06:01:31.684Z,97.16
2022-10-05T06:06:39.224Z,97.05
2022-10-05T06:11:49.084Z,97.42
2022-10-05T06:16:56.259Z,97.20
2022-10-05T06:22:05.267Z,97.47
2022-10-05T06:27:37.771Z,97.50
2022-10-05T06:33:03.785Z,97.64
2022-10-05T06:38:22.071Z,97.80
2022-10-05T06:43:38.971Z,97.80
2022-10-05T06:48:50.168Z,97.74
2022-10-05T06:54:04.551Z,97.90
2022-10-05T06:59:14.890Z,97.91
2022-10-05T07:04:35.988Z,97.71
2022-10-05T07:09:49.796Z,97.69
2022-10-05T07:15:08.299Z,98.00
2022-10-05T07:20:18.529Z,97.74
2022-10-05T07:25:25.178Z,97.82
2022-10-05T07:30:32.085Z,97.85
2022-10-05T07:36:06.264Z,98.00
2022-10-05T07:41:15.801Z,97.88
2022-10-05T07:46:25.138Z,97.89
2022-10-05T07:51:36.108Z,97.76
2022-10-05T07:56:43.428Z,97.99
2022-10-05T08:01:51.978Z,97.73
2022-10-05T08:06:57.612Z,97.56
2022-10-05T08:12:10.525Z,97.74
2022-10-05T08:17:25.719Z,97.63
2022-10-05T08:22:32.789Z,97.28
2022-10-05T08:27:43.474Z,97.29
2022-10-05T08:32:53.888Z,97.29
2022-10-05T08:37:57.974Z,97.14
2022-10-05T08:43:10.391Z,97.08
2022-10-05T08:48:27.790Z,96.69
2022-10-05T08:53:52.734Z,96.69
2022-10-05T08:59:35.059Z,96.20
2022-10-05T09:04:54.716Z,96.31
2022-10-05T09:10:25.496Z,95.92
2022-10-05T09:16:05.336Z,95.53
2022-10-05T09:21:21.601Z,95.43
2022-10-05T09:26:44.239Z,95.02
2022-10-05T09:32:14.236Z,94.81
2022-10-05T09:37:53.431Z,94.54
2022-10-05T09:43:11.989Z,94.54
2022-10-05T09:48:48.319Z,94.25
2022-10-05T09:54:29.207Z,94.18
2022-10-05T10:00:08.732Z,94.00
2022-10-05T10:05:32.814Z,93.96
2022-10-05T10:11:14.340Z,93.94
2022-10-05T10:16:28.275Z,93.84
2022-10-05T10:21:50.271Z,93.67
2022-10-05T10:27:07.656Z,93.29
2022-10-05T10:32:29.997Z,93.11
2022-10-05T10:38:15.073Z,91.96
2022-10-05T10:43:51.588Z,91.30
2022-10-05T10:48:58.537Z,90.89
2022-10-05T10:54:44.289Z,89.59
2022-10-05T11:00:25.326Z,89.15
2022-10-05T11:05:38.670Z,88.43
2022-10-05T11:11:07.986Z,87.89
2022-10-05T11:16:32.225Z,87.57
2022-10-05T11:21:46.193Z,86.96
2022-10-05T11:27:13.470Z,86.62
2022-10-05T11:32:42.632Z,84.98
2022-10-05T11:38:02.675Z,84.24
2022-10-05T11:43:33.814Z,83.42
2022-10-05T11:49:06.803Z,84.06
2022-10-05T11:54:23.138Z,83.22
2022-10-05T11:59:34.477Z,82.11
2022-10-05T12:04:49.844Z,81.95
2022-10-05T12:10:17.042Z,81.42
2022-10-05T12:15:26.339Z,81.26
2022-10-05T12:20:39.559Z,82.00
2022-10-05T12:25:47.111Z,82.17
2022-10-05T12:31:04.745Z,81.75
2022-10-05T12:36:15.414Z,81.38
2022-10-05T12:41:23.351Z,81.43
2022-10-05T12:46:35.368Z,82.07
2022-10-05T12:51:43.496Z,82.49
2022-10-05T12:56:54.327Z,82.75
2022-10-05T13:02:08.740Z,82.03
2022-10-05T13:07:38.488Z,81.92
2022-10-05T13:12:55.099Z,82.19
2022-10-05T13:18:12.000Z,82.32
2022-10-05T13:23:25.313Z,83.22
2022-10-05T13:28:34.648Z,82.82
2022-10-05T13:33:57.264Z,82.37
2022-10-05T13:39:06.589Z,82.18
2022-10-05T13:44:19.025Z,82.04
2022-10-05T13:49:26.528Z,81.90
2022-10-05T13:54:43.805Z,80.69
2022-10-05T13:59:54.318Z,81.56
2022-10-05T14:05:01.729Z,81.92
2022-10-05T14:10:14.268Z,82.27
2022-10-05T14:15:22.651Z,82.35
2022-10-05T14:20:27.344Z,82.54
2022-10-05T14:25:32.851Z,83.01
2022-10-05T14:30:35.767Z,83.35
2022-10-05T14:35:50.882Z,82.65
2022-10-05T14:41:20.225Z,82.47
2022-10-05T14:46:28.181Z,82.51
2022-10-05T14:51:33.161Z,82.22
2022-10-05T14:56:46.160Z,81.94
2022-10-05T15:01:55.941Z,82.37
2022-10-05T15:07:12.077Z,82.98
2022-10-05T15:12:23.389Z,82.93
2022-10-05T15:17:32.205Z,83.11
2022-10-05T15:22:44.889Z,83.50
2022-10-05T15:28:07.325Z,83.21
2022-10-05T15:33:19.216Z,83.10
2022-10-05T15:38:25.816Z,83.11
2022-10-05T15:43:42.016Z,83.27
2022-10-05T15:48:51.960Z,83.63
2022-10-05T15:54:16.314Z,83.75
2022-10-05T15:59:32.849Z,83.80
2022-10-05T16:04:48.561Z,83.95
2022-10-05T16:09:57.755Z,84.26
2022-10-05T16:15:26.478Z,84.07
2022-10-05T16:20:38.731Z,84.39
2022-10-05T16:25:52.494Z,84.63
2022-10-05T16:31:02.227Z,84.76
2022-10-05T16:36:18.029Z,84.95
2022-10-05T16:41:29.559Z,84.95
2022-10-05T16:46:40.894Z,85.00
2022-10-05T16:51:54.040Z,85.01
2022-10-05T16:57:03.028Z,84.94
2022-10-05T17:02:19.174Z,85.39
2022-10-05T17:07:44.637Z,85.42
2022-10-05T17:13:00.277Z,85.18
2022-10-05T17:18:23.550Z,85.09
2022-10-05T17:23:37.055Z,85.19
2022-10-05T17:28:42.505Z,85.54
2022-10-05T17:34:26.432Z,85.57
2022-10-05T17:39:50.632Z,85.81
2022-10-05T17:44:56.710Z,85.77
2022-10-05T17:50:18.694Z,86.10
2022-10-05T17:55:39.337Z,86.29
2022-10-05T18:01:07.011Z,86.53
2022-10-05T18:06:39.133Z,86.75
2022-10-05T18:11:44.524Z,86.87
2022-10-05T18:17:01.334Z,87.21
2022-10-05T18:22:27.743Z,87.28
2022-10-05T18:27:54.178Z,87.36
2022-10-05T18:33:23.231Z,87.67
2022-10-05T18:38:44.421Z,87.70
2022-10-05T18:43:57.872Z,87.77
2022-10-05T18:49:10.567Z,87.88
2022-10-05T18:54:29.927Z,88.19
2022-10-05T18:59:45.236Z,88.33
2022-10-05T19:05:02.117Z,88.48
2022-10-05T19:10:16.021Z,88.46
2022-10-05T19:15:25.864Z,88.43
2022-10-05T19:20:35.644Z,88.70
2022-10-05T19:25:48.251Z,88.74
2022-10-05T19:31:14.150Z,89.00
2022-10-05T19:36:39.672Z,88.85
2022-10-05T19:41:57.914Z,89.04
2022-10-05T19:47:02.820Z,89.26
2022-10-05T19:52:13.643Z,89.49
2022-10-05T19:57:18.764Z,89.34
2022-10-05T20:02:27.271Z,89.42
2022-10-05T20:07:30.999Z,89.46
2022-10-05T20:12:52.098Z,89.64
2022-10-05T20:18:12.520Z,89.84
2022-10-05T20:23:23.416Z,89.95
2022-10-05T20:28:34.084Z,90.19
2022-10-05T20:33:37.038Z,90.19
2022-10-05T20:38:41.289Z,90.37
2022-10-05T20:43:45.468Z,90.63
2022-10-05T20:48:48.158Z,90.85
2022-10-05T20:53:50.831Z,91.31
2022-10-05T20:58:54.884Z,91.38
2022-10-05T21:03:57.627Z,91.71
2022-10-05T21:09:00.627Z,91.98
2022-10-05T21:14:05.828Z,91.95
2022-10-05T21:19:09.823Z,92.14
2022-10-05T21:24:14.383Z,92.19
2022-10-05T21:29:18.436Z,92.30
2022-10-05T21:34:21.114Z,92.66
2022-10-05T21:39:24.708Z,92.84
2022-10-05T21:44:28.837Z,92.97
2022-10-05T21:49:31.569Z,93.25
2022-10-05T21:54:35.043Z,93.62
2022-10-05T21:59:39.381Z,93.98
2022-10-05T22:04:42.226Z,94.00
2022-10-05T22:09:45.293Z,94.72
2022-10-05T22:14:49.650Z,95.35
2022-10-05T22:19:52.540Z,95.71
2022-10-05T22:24:55.517Z,96.35
2022-10-05T22:30:00.069Z,96.60
2022-10-05T22:35:03.333Z,96.47
2022-10-05T22:40:09.883Z,96.17
2022-10-05T22:45:14.250Z,95.87
2022-10-05T22:50:17.079Z,95.49
2022-10-05T22:55:19.962Z,95.33
2022-10-05T23:00:35.129Z,95.50
2022-10-05T23:05:43.378Z,95.29
2022-10-05T23:10:46.049Z,95.25
2022-10-05T23:15:50.737Z,95.35
2022-10-05T23:20:57.196Z,95.19
2022-10-05T23:26:00.470Z,95.39
2022-10-05T23:31:07.295Z,95.40
2022-10-05T23:36:13.474Z,95.29
2022-10-05T23:41:17.274Z,95.44
2022-10-05T23:46:21.394Z,95.48
2022-10-05T23:51:24.174Z,95.50
2022-10-05T23:56:26.858Z,95.25
